createdAt,value
2022-10-23T00:00:59.174Z,85.56
2022-10-23T00:03:25.770Z,85.06
2022-10-23T00:05:52.180Z,84.72
2022-10-23T00:08:18.573Z,85.43
2022-10-23T00:10:45.224Z,85.69
2022-10-23T00:13:11.719Z,85.19
2022-10-23T00:15:38.100Z,85.54
2022-10-23T00:18:05.109Z,85.57
2022-10-23T00:20:31.548Z,85.74
2022-10-23T00:22:57.918Z,85.89
2022-10-23T00:25:24.341Z,85.39
2022-10-23T00:27:50.691Z,85.86
2022-10-23T00:30:17.146Z,85.26
2022-10-23T00:32:43.503Z,84.95
2022-10-23T00:35:09.881Z,85.79
2022-10-23T00:37:36.237Z,85.36
2022-10-23T00:40:04.043Z,86.20
2022-10-23T00:42:30.490Z,85.54
2022-10-23T00:45:11.517Z,85.42
2022-10-23T00:47:38.323Z,86.01
2022-10-23T00:50:05.143Z,86.16
2022-10-23T00:52:32.789Z,86.19
2022-10-23T00:54:59.384Z,85.62
2022-10-23T00:57:25.821Z,85.60
2022-10-23T00:59:52.380Z,86.19
2022-10-23T01:02:18.890Z,86.26
2022-10-23T01:04:45.343Z,86.24
2022-10-23T01:07:43.571Z,86.47
2022-10-23T01:10:20.245Z,86.18
2022-10-23T01:13:05.871Z,86.49
2022-10-23T01:15:34.983Z,85.73
2022-10-23T01:18:10.230Z,86.47
2022-10-23T01:20:43.144Z,86.44
2022-10-23T01:23:37.586Z,85.86
2022-10-23T01:26:30.632Z,86.74
2022-10-23T01:29:03.412Z,86.54
2022-10-23T01:31:38.026Z,86.69
2022-10-23T01:34:12.461Z,86.39
2022-10-23T01:36:43.931Z,86.82
2022-10-23T01:39:24.366Z,86.31
2022-10-23T01:41:56.960Z,86.78
2022-10-23T01:44:36.414Z,86.94
2022-10-23T01:47:05.998Z,87.23
2022-10-23T01:49:33.722Z,86.19
2022-10-23T01:52:02.408Z,86.85
2022-10-23T01:54:32.111Z,86.94
2022-10-23T01:56:59.336Z,86.69
2022-10-23T01:59:32.152Z,86.38
2022-10-23T02:02:00.555Z,86.89
2022-10-23T02:04:31.476Z,87.02
2022-10-23T02:06:57.929Z,86.50
2022-10-23T02:09:24.436Z,87.46
2022-10-23T02:12:01.763Z,87.01
2022-10-23T02:14:51.102Z,86.66
2022-10-23T02:17:45.373Z,87.49
2022-10-23T02:20:28.931Z,86.52
2022-10-23T02:23:01.031Z,87.14
2022-10-23T02:25:33.485Z,86.44
2022-10-23T02:28:04.616Z,87.57
2022-10-23T02:30:34.411Z,87.56
2022-10-23T02:33:02.667Z,86.67
2022-10-23T02:35:29.093Z,87.18
2022-10-23T02:37:57.456Z,86.95
2022-10-23T02:40:30.628Z,87.25
2022-10-23T02:43:18.079Z,86.70
2022-10-23T02:45:56.473Z,86.54
2022-10-23T02:48:26.687Z,86.56
2022-10-23T02:51:07.183Z,87.74
2022-10-23T02:53:38.192Z,87.47
2022-10-23T02:56:23.647Z,87.77
2022-10-23T02:59:14.487Z,86.56
2022-10-23T03:01:53.311Z,87.61
2022-10-23T03:04:23.615Z,86.75
2022-10-23T03:06:51.642Z,86.97
2022-10-23T03:09:18.585Z,86.72
2022-10-23T03:11:45.040Z,87.56
2022-10-23T03:14:14.654Z,86.79
2022-10-23T03:16:41.003Z,87.56
2022-10-23T03:19:07.397Z,86.85
2022-10-23T03:21:33.834Z,87.89
2022-10-23T03:24:00.163Z,87.80
2022-10-23T03:26:26.540Z,86.94
2022-10-23T03:28:52.898Z,87.76
2022-10-23T03:31:19.340Z,86.74
2022-10-23T03:33:45.708Z,87.17
2022-10-23T03:36:12.169Z,87.95
2022-10-23T03:38:38.536Z,87.83
2022-10-23T03:41:05.128Z,87.86
2022-10-23T03:43:31.551Z,87.83
2022-10-23T03:45:57.965Z,88.03
2022-10-23T03:48:24.956Z,86.91
2022-10-23T03:50:51.481Z,87.92
2022-10-23T03:53:18.009Z,87.89
2022-10-23T03:55:45.312Z,87.97
2022-10-23T03:58:11.772Z,87.80
2022-10-23T04:00:38.171Z,87.52
2022-10-23T04:03:04.535Z,87.39
2022-10-23T04:05:30.904Z,87.80
2022-10-23T04:07:57.455Z,88.21
2022-10-23T04:10:23.789Z,87.44
2022-10-23T04:12:50.185Z,88.36
2022-10-23T04:15:16.757Z,87.23
2022-10-23T04:17:43.144Z,87.93
2022-10-23T04:20:09.789Z,87.79
2022-10-23T04:22:36.166Z,87.23
2022-10-23T04:25:02.584Z,87.01
2022-10-23T04:27:28.943Z,88.26
2022-10-23T04:29:58.245Z,87.50
2022-10-23T04:32:25.647Z,87.53
2022-10-23T04:34:52.072Z,87.43
2022-10-23T04:37:18.397Z,87.36
2022-10-23T04:39:44.768Z,87.11
2022-10-23T04:42:11.761Z,87.94
2022-10-23T04:44:38.134Z,87.68
2022-10-23T04:47:04.507Z,87.92
2022-10-23T04:49:30.870Z,87.20
2022-10-23T04:51:57.242Z,87.99
2022-10-23T04:54:23.596Z,88.30
2022-10-23T04:56:50.032Z,87.86
2022-10-23T04:59:17.408Z,87.23
2022-10-23T05:01:50.567Z,88.27
2022-10-23T05:04:19.732Z,88.22
2022-10-23T05:10:11.150Z,87.45
2022-10-23T05:12:44.057Z,87.53
2022-10-23T05:15:27.397Z,87.67
2022-10-23T05:18:29.737Z,87.61
2022-10-23T05:24:41.712Z,88.30
2022-10-23T05:27:17.636Z,87.30
2022-10-23T05:30:04.379Z,88.32
2022-10-23T05:32:56.491Z,88.27
2022-10-23T05:36:09.300Z,87.73
2022-10-23T05:38:55.758Z,88.29
2022-10-23T05:41:48.325Z,88.25
2022-10-23T05:54:35.036Z,87.78
2022-10-23T05:59:29.690Z,87.62
2022-10-23T06:01:56.149Z,88.24
2022-10-23T06:04:22.620Z,87.63
2022-10-23T06:06:48.994Z,87.68
2022-10-23T06:09:15.859Z,87.68
2022-10-23T06:11:43.020Z,88.03
2022-10-23T06:14:09.483Z,88.06
2022-10-23T06:16:36.160Z,88.36
2022-10-23T06:19:02.613Z,88.59
2022-10-23T06:21:28.959Z,88.21
2022-10-23T06:23:56.295Z,87.89
2022-10-23T06:26:23.107Z,88.64
2022-10-23T06:28:49.585Z,87.85
2022-10-23T06:31:18.996Z,88.29
2022-10-23T06:33:45.480Z,88.33
2022-10-23T06:36:12.792Z,88.23
2022-10-23T06:38:40.580Z,88.56
2022-10-23T06:41:12.415Z,87.58
2022-10-23T06:43:38.762Z,87.71
2022-10-23T06:46:05.294Z,87.95
2022-10-23T06:48:32.507Z,88.01
2022-10-23T06:50:59.626Z,87.60
2022-10-23T06:53:26.031Z,88.22
2022-10-23T06:55:55.314Z,87.72
2022-10-23T06:58:22.135Z,87.49
2022-10-23T07:00:48.524Z,88.07
2022-10-23T07:03:14.863Z,87.87
2022-10-23T07:05:41.217Z,87.67
2022-10-23T07:08:07.561Z,87.95
2022-10-23T07:10:34.395Z,86.90
2022-10-23T07:13:01.070Z,87.09
2022-10-23T07:15:28.283Z,88.24
2022-10-23T07:17:54.767Z,87.66
2022-10-23T07:20:21.959Z,88.10
2022-10-23T07:22:52.953Z,87.88
2022-10-23T07:25:19.314Z,87.37
2022-10-23T07:27:45.924Z,86.74
2022-10-23T07:30:13.556Z,87.52
2022-10-23T07:32:39.960Z,87.23
2022-10-23T07:35:06.926Z,87.35
2022-10-23T07:37:33.420Z,87.49
2022-10-23T07:39:59.777Z,87.45
2022-10-23T07:42:26.129Z,87.65
2022-10-23T07:44:52.532Z,86.97
2022-10-23T07:47:18.880Z,86.76
2022-10-23T07:49:45.208Z,86.76
2022-10-23T07:52:11.580Z,87.26
2022-10-23T07:54:37.971Z,86.74
2022-10-23T07:57:04.339Z,86.83
2022-10-23T07:59:33.434Z,86.49
2022-10-23T08:02:03.921Z,86.04
2022-10-23T08:04:30.302Z,86.69
2022-10-23T08:06:56.863Z,86.22
2022-10-23T08:09:23.234Z,86.17
2022-10-23T08:11:49.611Z,86.06
2022-10-23T08:14:15.968Z,85.84
2022-10-23T08:16:42.361Z,85.78
2022-10-23T08:19:08.770Z,86.40
2022-10-23T08:21:35.211Z,86.26
2022-10-23T08:24:01.667Z,86.30
2022-10-23T08:26:29.387Z,85.65
2022-10-23T08:28:58.279Z,85.70
2022-10-23T08:31:24.671Z,85.28
2022-10-23T08:33:51.047Z,85.79
2022-10-23T08:36:21.939Z,85.38
2022-10-23T08:38:48.483Z,85.00
2022-10-23T08:41:31.661Z,84.98
2022-10-23T08:44:22.911Z,84.76
2022-10-23T08:47:14.583Z,84.67
2022-10-23T08:50:24.081Z,84.68
2022-10-23T08:52:52.940Z,84.88
2022-10-23T08:55:38.344Z,84.91
2022-10-23T08:58:38.761Z,84.58
2022-10-23T09:01:34.581Z,84.41
2022-10-23T09:04:02.291Z,84.79
2022-10-23T09:06:40.690Z,84.44
2022-10-23T09:09:07.012Z,84.20
2022-10-23T09:11:46.789Z,84.05
2022-10-23T09:14:47.066Z,83.38
2022-10-23T09:17:23.067Z,83.72
2022-10-23T09:19:55.725Z,83.34
2022-10-23T09:22:22.112Z,82.72
2022-10-23T09:24:52.964Z,82.63
2022-10-23T09:27:20.532Z,82.63
2022-10-23T09:29:52.527Z,81.04
2022-10-23T09:32:20.687Z,81.46
2022-10-23T09:34:53.366Z,81.06
2022-10-23T09:37:32.744Z,80.97
2022-10-23T09:40:24.817Z,80.56
2022-10-23T09:42:53.913Z,79.86
2022-10-23T09:45:41.714Z,79.20
2022-10-23T09:48:11.016Z,80.23
2022-10-23T09:50:37.803Z,79.06
2022-10-23T09:53:04.403Z,79.44
2022-10-23T09:55:31.052Z,78.10
2022-10-23T09:57:57.683Z,77.51
2022-10-23T10:00:26.362Z,77.26
2022-10-23T10:02:57.417Z,77.16
2022-10-23T10:05:31.424Z,76.08
2022-10-23T10:08:29.716Z,76.48
2022-10-23T10:11:10.340Z,75.94
2022-10-23T10:14:10.731Z,75.29
2022-10-23T10:17:05.726Z,75.82
2022-10-23T10:20:19.812Z,74.92
2022-10-23T10:23:07.894Z,76.21
2022-10-23T10:25:52.246Z,74.30
2022-10-23T10:28:53.687Z,75.78
2022-10-23T10:31:30.047Z,75.12
2022-10-23T10:34:22.287Z,74.67
2022-10-23T10:36:58.677Z,74.46
2022-10-23T10:39:46.794Z,73.29
2022-10-23T10:42:46.595Z,71.62
2022-10-23T10:45:33.670Z,71.92
2022-10-23T10:48:20.272Z,71.84
2022-10-23T10:51:01.813Z,70.56
2022-10-23T10:53:52.054Z,70.31
2022-10-23T10:56:23.249Z,71.72
2022-10-23T10:58:57.941Z,71.39
2022-10-23T11:01:40.875Z,70.98
2022-10-23T11:04:28.599Z,71.56
2022-10-23T11:06:58.088Z,70.82
2022-10-23T11:09:35.012Z,71.38
2022-10-23T11:12:01.409Z,70.15
2022-10-23T11:14:32.961Z,69.55
2022-10-23T11:17:13.609Z,69.53
2022-10-23T11:19:53.698Z,69.86
2022-10-23T11:22:35.329Z,69.45
2022-10-23T11:25:21.109Z,70.34
2022-10-23T11:28:10.200Z,69.16
2022-10-23T11:31:09.453Z,69.13
2022-10-23T11:34:07.553Z,69.39
2022-10-23T11:36:51.007Z,69.17
2022-10-23T11:39:27.258Z,70.30
2022-10-23T11:42:00.108Z,70.02
2022-10-23T11:44:29.547Z,68.88
2022-10-23T11:47:38.884Z,70.11
2022-10-23T11:50:08.527Z,69.67
2022-10-23T11:53:13.746Z,68.34
2022-10-23T11:55:57.422Z,69.34
2022-10-23T11:58:32.098Z,69.67
2022-10-23T12:01:06.450Z,69.38
2022-10-23T12:03:50.099Z,68.35
2022-10-23T12:06:23.288Z,68.22
2022-10-23T12:08:53.936Z,68.86
2022-10-23T12:11:39.793Z,68.91
2022-10-23T12:14:25.110Z,68.28
2022-10-23T12:16:51.537Z,67.24
2022-10-23T12:19:22.460Z,68.04
2022-10-23T12:21:56.820Z,67.73
2022-10-23T12:24:39.527Z,68.10
2022-10-23T12:27:23.882Z,68.21
2022-10-23T12:30:03.719Z,67.13
2022-10-23T12:33:10.197Z,67.49
2022-10-23T12:36:32.930Z,67.87
2022-10-23T12:39:36.636Z,67.29
2022-10-23T12:42:38.188Z,67.27
2022-10-23T12:46:09.037Z,65.77
2022-10-23T12:59:07.618Z,65.74
2022-10-23T13:05:44.905Z,63.82
2022-10-23T13:13:35.469Z,63.48
2022-10-23T13:23:45.928Z,63.16
2022-10-23T13:26:28.367Z,63.42
2022-10-23T13:28:55.094Z,61.81
2022-10-23T13:31:21.434Z,62.45
2022-10-23T13:34:00.046Z,62.85
2022-10-23T13:36:28.359Z,62.60
2022-10-23T13:39:09.963Z,64.14
2022-10-23T13:41:39.085Z,64.42
2022-10-23T13:44:06.313Z,63.69
2022-10-23T13:46:33.295Z,64.36
2022-10-23T13:48:59.723Z,65.18
2022-10-23T13:51:48.828Z,65.10
2022-10-23T14:05:36.692Z,67.30
2022-10-23T14:14:36.309Z,67.95
2022-10-23T14:27:59.668Z,67.47
2022-10-23T14:30:26.067Z,68.20
2022-10-23T14:32:52.448Z,67.86
2022-10-23T14:35:18.914Z,68.83
2022-10-23T14:37:45.583Z,68.37
2022-10-23T14:40:12.387Z,68.98
2022-10-23T14:42:38.783Z,68.42
2022-10-23T14:45:05.829Z,68.45
2022-10-23T14:47:32.848Z,68.37
2022-10-23T14:49:59.298Z,68.79
2022-10-23T14:52:25.717Z,68.95
2022-10-23T14:54:53.315Z,69.71
2022-10-23T14:57:21.891Z,70.50
2022-10-23T14:59:49.432Z,69.61
2022-10-23T15:02:16.364Z,70.05
2022-10-23T15:04:42.776Z,69.88
2022-10-23T15:07:09.207Z,70.36
2022-10-23T15:09:36.555Z,70.64
2022-10-23T15:12:04.310Z,71.36
2022-10-23T15:14:30.858Z,71.55
2022-10-23T15:16:57.192Z,71.15
2022-10-23T15:19:23.731Z,71.46
2022-10-23T15:21:50.135Z,71.61
2022-10-23T15:24:17.818Z,72.00
2022-10-23T15:26:44.604Z,72.36
2022-10-23T15:29:11.834Z,72.45
2022-10-23T15:31:38.150Z,71.55
2022-10-23T15:34:05.613Z,72.37
2022-10-23T15:36:32.204Z,72.05
2022-10-23T15:38:58.575Z,72.56
2022-10-23T15:41:31.202Z,72.88
2022-10-23T15:44:02.397Z,72.72
2022-10-23T15:46:29.085Z,72.51
2022-10-23T15:48:55.495Z,73.06
2022-10-23T15:51:22.376Z,72.58
2022-10-23T15:53:48.829Z,73.22
2022-10-23T15:56:15.577Z,73.88
2022-10-23T15:58:41.969Z,74.12
2022-10-23T16:01:08.395Z,73.83
2022-10-23T16:03:38.635Z,74.01
2022-10-23T16:06:10.180Z,74.23
2022-10-23T16:08:37.602Z,73.40
2022-10-23T16:11:11.819Z,73.86
2022-10-23T16:13:38.180Z,74.21
2022-10-23T16:16:04.773Z,74.99
2022-10-23T16:18:31.350Z,75.02
2022-10-23T16:20:57.789Z,75.29
2022-10-23T16:23:24.187Z,74.65
2022-10-23T16:25:51.155Z,75.73
2022-10-23T16:28:18.281Z,75.87
2022-10-23T16:30:45.210Z,75.60
2022-10-23T16:33:12.846Z,76.07
2022-10-23T16:35:39.516Z,75.93
2022-10-23T16:38:05.902Z,76.53
2022-10-23T16:40:32.241Z,76.70
2022-10-23T16:42:58.881Z,76.39
2022-10-23T16:45:25.340Z,76.88
2022-10-23T16:47:51.763Z,76.62
2022-10-23T16:50:18.286Z,77.31
2022-10-23T16:52:45.101Z,77.50
2022-10-23T16:55:11.780Z,76.64
2022-10-23T16:57:38.193Z,77.08
2022-10-23T17:00:18.688Z,77.40
2022-10-23T17:03:53.023Z,76.82
2022-10-23T17:06:18.956Z,78.16
2022-10-23T17:23:03.802Z,78.13
2022-10-23T17:28:31.552Z,78.44
2022-10-23T17:30:58.026Z,78.25
2022-10-23T17:33:24.953Z,78.54
2022-10-23T17:35:52.342Z,78.72
2022-10-23T17:38:19.093Z,78.34
2022-10-23T17:40:46.694Z,78.79
2022-10-23T17:43:15.009Z,78.07
2022-10-23T17:45:45.281Z,77.87
2022-10-23T17:48:14.816Z,78.11
2022-10-23T17:50:41.388Z,77.84
2022-10-23T17:53:08.332Z,78.40
2022-10-23T17:55:41.496Z,77.94
2022-10-23T17:58:08.608Z,79.09
2022-10-23T18:00:36.804Z,78.41
2022-10-23T18:03:04.510Z,78.32
2022-10-23T18:05:33.089Z,79.43
2022-10-23T18:08:00.326Z,78.67
2022-10-23T18:10:33.898Z,78.61
2022-10-23T18:13:05.240Z,78.32
2022-10-23T18:15:52.282Z,78.11
2022-10-23T18:19:30.093Z,78.36
2022-10-23T18:22:26.339Z,78.34
2022-10-23T18:24:52.718Z,78.19
2022-10-23T18:38:17.825Z,78.36
2022-10-23T18:40:44.886Z,77.73
2022-10-23T18:43:14.964Z,78.21
2022-10-23T18:45:42.188Z,77.33
2022-10-23T18:48:08.668Z,77.13
2022-10-23T18:50:37.173Z,77.37
2022-10-23T18:53:04.305Z,76.69
2022-10-23T18:55:31.083Z,78.05
2022-10-23T18:57:57.926Z,78.34
2022-10-23T19:00:24.304Z,78.68
2022-10-23T19:02:52.374Z,78.65
2022-10-23T19:05:19.554Z,78.27
2022-10-23T19:07:53.553Z,78.14
2022-10-23T19:10:34.299Z,77.69
2022-10-23T19:13:18.560Z,78.93
2022-10-23T19:15:59.954Z,78.63
2022-10-23T19:18:33.662Z,78.29
2022-10-23T19:21:48.760Z,79.26
2022-10-23T19:28:01.217Z,79.29
2022-10-23T19:37:31.327Z,80.08
2022-10-23T19:40:11.513Z,79.43
2022-10-23T19:42:48.316Z,79.11
2022-10-23T19:45:28.868Z,80.16
2022-10-23T19:48:09.796Z,80.05
2022-10-23T20:01:04.967Z,80.26
2022-10-23T20:04:01.358Z,80.24
2022-10-23T20:07:10.375Z,79.43
2022-10-23T20:12:27.028Z,80.79
2022-10-23T20:15:48.983Z,79.84
2022-10-23T20:18:48.673Z,79.87
2022-10-23T20:21:45.751Z,79.58
2022-10-23T20:24:26.927Z,79.57
2022-10-23T20:30:38.127Z,80.23
2022-10-23T20:33:15.144Z,80.20
2022-10-23T20:39:03.721Z,79.19
2022-10-23T20:44:37.210Z,79.37
2022-10-23T20:55:48.044Z,78.47
2022-10-23T20:58:38.522Z,77.46
2022-10-23T21:01:07.066Z,76.97
2022-10-23T21:03:33.582Z,76.91
2022-10-23T21:06:19.360Z,77.30
2022-10-23T21:08:46.428Z,77.25
2022-10-23T21:11:15.013Z,77.14
2022-10-23T21:13:42.931Z,76.02
2022-10-23T21:16:27.621Z,74.88
2022-10-23T21:18:58.706Z,75.37
2022-10-23T21:21:26.222Z,75.63
2022-10-23T21:23:54.612Z,75.37
2022-10-23T21:26:22.974Z,74.64
2022-10-23T21:28:56.082Z,75.07
2022-10-23T21:31:33.654Z,74.10
2022-10-23T21:34:00.162Z,74.76
2022-10-23T21:36:27.443Z,73.34
2022-10-23T21:38:56.107Z,73.32
2022-10-23T21:41:27.847Z,73.92
2022-10-23T21:43:55.915Z,73.03
2022-10-23T21:46:23.533Z,73.02
2022-10-23T21:48:50.305Z,72.48
2022-10-23T21:51:25.674Z,71.58
2022-10-23T21:53:53.986Z,70.85
2022-10-23T21:56:26.491Z,70.92
2022-10-23T21:58:53.321Z,70.74
2022-10-23T22:01:20.386Z,71.79
2022-10-23T22:03:46.909Z,71.53
2022-10-23T22:06:22.521Z,70.94
2022-10-23T22:08:50.313Z,71.01
2022-10-23T22:11:16.937Z,69.87
2022-10-23T22:13:44.096Z,69.98
2022-10-23T22:16:12.091Z,70.10
2022-10-23T22:18:38.512Z,70.52
2022-10-23T22:21:10.036Z,69.07
2022-10-23T22:23:37.386Z,69.01
2022-10-23T22:26:06.317Z,70.33
2022-10-23T22:28:32.717Z,69.97
2022-10-23T22:31:01.284Z,69.16
2022-10-23T22:33:28.848Z,69.57
2022-10-23T22:36:02.680Z,69.54
2022-10-23T22:38:31.668Z,68.39
2022-10-23T22:41:01.847Z,69.27
2022-10-23T22:43:29.091Z,69.54
2022-10-23T22:46:03.638Z,69.26
2022-10-23T22:48:30.058Z,68.52
2022-10-23T22:50:56.568Z,68.45
2022-10-23T22:53:22.939Z,68.12
2022-10-23T22:55:49.464Z,67.45
2022-10-23T22:58:15.816Z,68.31
2022-10-23T23:00:51.664Z,67.88
2022-10-23T23:09:53.626Z,67.60
2022-10-23T23:13:09.084Z,67.64
2022-10-23T23:15:47.097Z,68.27
2022-10-23T23:18:26.229Z,67.40
2022-10-23T23:21:22.858Z,68.39
2022-10-23T23:23:51.855Z,68.45
2022-10-23T23:26:26.685Z,66.72
2022-10-23T23:29:01.773Z,66.89
2022-10-23T23:31:32.870Z,67.18
2022-10-23T23:34:01.980Z,67.43
2022-10-23T23:36:33.304Z,67.63
2022-10-23T23:39:07.912Z,67.32
2022-10-23T23:41:42.365Z,67.83
2022-10-23T23:44:14.322Z,66.79
2022-10-23T23:46:56.299Z,67.04
2022-10-23T23:49:27.438Z,66.00
2022-10-23T23:52:01.360Z,67.45
2022-10-23T23:54:38.462Z,65.94
2022-10-23T23:59:49.895Z,66.97
